Weather at Raiatea Airport

Public forecast

Using degrees Celsius for public forecast. Weather courtesy of forecast.io.

Closest aviation weather report (METAR) to Raiatea Airport

Closest report is Faa'a International Airport, 117.7 nm (218.1 km) ESE. Retrieved 2022/01/25 10:30 UTC (7 minutes ago):

NTAA 251030Z AUTO 06010KT 9999 FEW070 27/22 Q1014 TEMPO 3000 SHRA

Closest aviation forecast (TAF) to Raiatea Airport

Closest forecast is Faa'a International Airport, 117.7 nm (218.1 km) ESE. Retrieved 2022/01/25 06:21 UTC (4 hours ago):

TAF NTAA 250500Z 2506/2612 05008KT 9999 SCT020 PROB30 TEMPO 2512/2516 3000 SHRA SCT016 BKN040